createdAt,value
2018-04-28T00:00:14.918Z,0
2018-04-28T00:00:41.057Z,0
2018-04-28T00:01:07.200Z,0
2018-04-28T00:01:33.332Z,0
2018-04-28T00:01:59.472Z,0
2018-04-28T00:02:25.605Z,0
2018-04-28T00:02:51.765Z,0
2018-04-28T00:03:17.953Z,0
2018-04-28T00:03:44.089Z,0
2018-04-28T00:04:10.227Z,0
2018-04-28T00:04:36.369Z,0
2018-04-28T00:05:02.509Z,0
2018-04-28T00:05:28.646Z,0
2018-04-28T00:05:54.782Z,0
2018-04-28T00:06:20.944Z,0
2018-04-28T00:06:47.084Z,0
2018-04-28T00:07:13.229Z,0
2018-04-28T00:07:39.389Z,0
2018-04-28T00:08:05.531Z,0
2018-04-28T00:08:31.666Z,0
2018-04-28T00:08:57.800Z,0
2018-04-28T00:09:23.945Z,0
2018-04-28T00:09:50.085Z,0
2018-04-28T00:10:16.272Z,0
2018-04-28T00:10:42.399Z,0
2018-04-28T00:11:08.549Z,0
2018-04-28T00:11:34.677Z,0
2018-04-28T00:12:00.822Z,0
2018-04-28T00:12:26.966Z,0
2018-04-28T00:12:53.100Z,0
2018-04-28T00:13:19.264Z,0
2018-04-28T00:13:45.397Z,0
2018-04-28T00:14:11.533Z,0
2018-04-28T00:14:37.673Z,0
2018-04-28T00:15:03.811Z,0
2018-04-28T00:15:29.952Z,0
2018-04-28T00:15:56.119Z,0
2018-04-28T00:16:22.245Z,0
2018-04-28T00:16:48.392Z,0
2018-04-28T00:17:14.521Z,0
2018-04-28T00:17:40.669Z,0
2018-04-28T00:18:06.809Z,0
2018-04-28T00:18:32.950Z,0
2018-04-28T00:18:59.105Z,0
2018-04-28T00:19:25.240Z,0
2018-04-28T00:19:51.375Z,0
2018-04-28T00:20:17.566Z,0
2018-04-28T00:20:43.700Z,0
2018-04-28T00:21:09.845Z,0
2018-04-28T00:21:36.022Z,0
2018-04-28T00:22:02.166Z,0
2018-04-28T00:22:28.330Z,0
2018-04-28T00:22:54.492Z,0
2018-04-28T00:23:20.627Z,0
2018-04-28T00:23:46.770Z,0
2018-04-28T00:24:12.901Z,0
2018-04-28T00:24:39.045Z,0
2018-04-28T00:25:05.238Z,0
2018-04-28T00:25:31.377Z,0
2018-04-28T00:25:57.511Z,0
2018-04-28T00:26:23.651Z,0
2018-04-28T00:26:49.819Z,0
2018-04-28T00:27:15.959Z,0
2018-04-28T00:27:42.090Z,0
2018-04-28T00:28:08.234Z,0
2018-04-28T00:28:34.439Z,0
2018-04-28T00:29:00.501Z,0
2018-04-28T00:29:26.645Z,0
2018-04-28T00:29:52.783Z,0
2018-04-28T00:30:18.948Z,0
2018-04-28T00:30:45.089Z,0
2018-04-28T00:31:11.220Z,0
2018-04-28T00:31:37.366Z,0
2018-04-28T00:32:03.508Z,0
2018-04-28T00:32:29.640Z,0
2018-04-28T00:32:55.777Z,0
2018-04-28T00:33:21.909Z,0
2018-04-28T00:33:48.050Z,0
2018-04-28T00:34:14.246Z,0
2018-04-28T00:34:40.381Z,0
2018-04-28T00:35:06.513Z,0
2018-04-28T00:35:32.659Z,0
2018-04-28T00:35:58.796Z,0
2018-04-28T00:36:24.933Z,0
2018-04-28T00:36:51.076Z,0
2018-04-28T00:37:17.237Z,0
2018-04-28T00:37:43.380Z,0
2018-04-28T00:38:09.532Z,0
2018-04-28T00:38:35.668Z,0
2018-04-28T00:39:01.802Z,0
2018-04-28T00:39:27.946Z,0
2018-04-28T00:39:54.085Z,0
2018-04-28T00:40:20.221Z,0
2018-04-28T00:40:46.353Z,0
2018-04-28T00:41:12.482Z,0
2018-04-28T00:41:38.616Z,0
2018-04-28T00:42:04.756Z,0
2018-04-28T00:42:30.888Z,0
2018-04-28T00:42:57.033Z,0
2018-04-28T00:43:23.162Z,0
2018-04-28T00:43:49.307Z,0
2018-04-28T00:44:15.440Z,0
2018-04-28T00:44:41.585Z,0
2018-04-28T00:45:07.713Z,0
2018-04-28T00:45:33.854Z,0
2018-04-28T00:45:59.993Z,0
2018-04-28T00:46:26.137Z,0
2018-04-28T00:46:52.266Z,0
2018-04-28T00:47:18.408Z,0
2018-04-28T00:47:44.572Z,0
2018-04-28T00:48:10.731Z,0
2018-04-28T00:48:36.910Z,0
2018-04-28T00:49:03.060Z,0
2018-04-28T00:49:29.201Z,0
2018-04-28T00:49:55.340Z,0
2018-04-28T00:50:21.474Z,0
2018-04-28T00:50:47.614Z,0
2018-04-28T00:51:13.841Z,0
2018-04-28T00:51:39.918Z,0
2018-04-28T00:52:06.061Z,0
2018-04-28T00:52:32.195Z,0
2018-04-28T00:52:58.325Z,0
2018-04-28T00:53:24.464Z,0
2018-04-28T00:53:50.601Z,0
2018-04-28T00:54:16.737Z,0
2018-04-28T00:54:42.876Z,0
2018-04-28T00:55:09.017Z,0
2018-04-28T00:55:38.276Z,0
2018-04-28T00:56:04.414Z,0
2018-04-28T00:56:30.554Z,0
2018-04-28T00:56:56.700Z,0
2018-04-28T00:57:22.835Z,0
2018-04-28T00:57:48.967Z,0
2018-04-28T00:58:15.109Z,0
2018-04-28T00:58:41.242Z,0
2018-04-28T00:59:07.390Z,0
2018-04-28T00:59:33.527Z,0
2018-04-28T00:59:59.662Z,0
2018-04-28T01:00:25.799Z,0
2018-04-28T01:00:51.959Z,0
2018-04-28T01:01:18.093Z,0
2018-04-28T01:01:44.262Z,0
2018-04-28T01:02:10.417Z,0
2018-04-28T01:02:36.566Z,0
2018-04-28T01:03:02.711Z,0
2018-04-28T01:03:28.870Z,0
2018-04-28T01:03:55.028Z,0
2018-04-28T01:04:21.196Z,0
2018-04-28T01:04:47.343Z,0
2018-04-28T01:05:13.497Z,0
2018-04-28T01:05:39.632Z,0
2018-04-28T01:06:05.791Z,0
2018-04-28T01:06:31.948Z,0
2018-04-28T01:06:58.087Z,0
2018-04-28T01:07:24.232Z,0
2018-04-28T01:07:50.396Z,0
2018-04-28T01:08:16.533Z,0
2018-04-28T01:08:42.666Z,0
2018-04-28T01:09:08.801Z,0
2018-04-28T01:09:34.998Z,0
2018-04-28T01:10:01.134Z,0
2018-04-28T01:10:27.275Z,0
2018-04-28T01:10:53.412Z,0
2018-04-28T01:11:19.575Z,0
2018-04-28T01:11:45.714Z,0
2018-04-28T01:12:11.844Z,0
2018-04-28T01:12:37.984Z,0
2018-04-28T01:13:04.147Z,0
2018-04-28T01:13:30.278Z,0
2018-04-28T01:13:56.422Z,0
2018-04-28T01:14:22.590Z,0
2018-04-28T01:14:48.729Z,0
2018-04-28T01:15:14.860Z,0
2018-04-28T01:15:41.023Z,0
2018-04-28T01:16:07.163Z,0
2018-04-28T01:16:33.328Z,0
2018-04-28T01:16:59.466Z,0
2018-04-28T01:17:25.606Z,0
2018-04-28T01:17:51.750Z,0
2018-04-28T01:18:17.885Z,0
2018-04-28T01:18:44.026Z,0
2018-04-28T01:19:10.180Z,0
2018-04-28T01:19:36.320Z,0
2018-04-28T01:20:02.461Z,0
2018-04-28T01:20:28.594Z,0
2018-04-28T01:20:54.737Z,0
2018-04-28T01:21:20.892Z,0
2018-04-28T01:21:47.032Z,0
2018-04-28T01:22:13.178Z,0
2018-04-28T01:22:39.312Z,0
2018-04-28T01:23:05.477Z,0
2018-04-28T01:23:31.617Z,0
2018-04-28T01:23:57.758Z,0
2018-04-28T01:24:23.901Z,0
2018-04-28T01:24:50.051Z,0
2018-04-28T01:25:16.190Z,0
2018-04-28T01:25:42.326Z,0
2018-04-28T01:26:08.469Z,0
2018-04-28T01:26:34.605Z,0
2018-04-28T01:27:00.748Z,0
2018-04-28T01:27:26.881Z,0
2018-04-28T01:27:53.017Z,0
2018-04-28T01:28:19.159Z,0
2018-04-28T01:28:45.322Z,0
2018-04-28T01:29:11.467Z,0
2018-04-28T01:29:37.627Z,0
2018-04-28T01:30:03.838Z,0
2018-04-28T01:30:29.926Z,0
2018-04-28T01:30:56.065Z,0
2018-04-28T01:31:22.195Z,0
2018-04-28T01:31:48.355Z,0
2018-04-28T01:32:14.498Z,0
2018-04-28T01:32:40.631Z,0
2018-04-28T01:33:06.781Z,0
2018-04-28T01:33:32.937Z,0
2018-04-28T01:33:59.080Z,0
2018-04-28T01:34:25.248Z,0
2018-04-28T01:34:51.388Z,0
2018-04-28T01:35:17.528Z,0
2018-04-28T01:35:43.672Z,0
2018-04-28T01:36:09.807Z,0
2018-04-28T01:36:35.947Z,0
2018-04-28T01:37:02.092Z,0
2018-04-28T01:37:28.244Z,0
2018-04-28T01:37:54.412Z,0
2018-04-28T01:38:20.551Z,0
2018-04-28T01:38:46.709Z,0
2018-04-28T01:39:12.875Z,0
2018-04-28T01:39:39.046Z,0
2018-04-28T01:40:05.142Z,0
2018-04-28T01:40:31.281Z,0
2018-04-28T01:40:57.421Z,0
2018-04-28T01:41:23.564Z,0
2018-04-28T01:41:49.695Z,0
2018-04-28T01:42:15.835Z,0
2018-04-28T01:42:41.997Z,0
2018-04-28T01:43:08.161Z,0
2018-04-28T01:43:34.297Z,0
2018-04-28T01:44:00.441Z,0
2018-04-28T01:44:26.574Z,0
2018-04-28T01:44:52.713Z,0
2018-04-28T01:45:18.878Z,0
2018-04-28T01:45:45.009Z,0
2018-04-28T01:46:11.203Z,0
2018-04-28T01:46:37.338Z,0
2018-04-28T01:47:03.471Z,0
2018-04-28T01:47:29.608Z,0
2018-04-28T01:47:55.796Z,0
2018-04-28T01:48:21.905Z,0
2018-04-28T01:48:48.068Z,0
2018-04-28T01:49:14.211Z,0
2018-04-28T01:49:40.378Z,0
2018-04-28T01:50:06.517Z,0
2018-04-28T01:50:32.679Z,0
2018-04-28T01:50:58.822Z,0
2018-04-28T01:51:24.981Z,0
2018-04-28T01:51:51.136Z,0
2018-04-28T01:52:17.276Z,0
2018-04-28T01:52:43.414Z,0
2018-04-28T01:53:09.578Z,0
2018-04-28T01:53:35.710Z,0
2018-04-28T01:54:01.858Z,0
2018-04-28T01:54:28.016Z,0
2018-04-28T01:54:54.158Z,0
2018-04-28T01:55:20.289Z,0
2018-04-28T01:55:46.431Z,0
2018-04-28T01:56:12.573Z,0
2018-04-28T01:56:38.713Z,0
2018-04-28T01:57:04.847Z,0
2018-04-28T01:57:30.991Z,0
2018-04-28T01:57:57.128Z,0
2018-04-28T01:58:23.261Z,0
2018-04-28T01:58:49.394Z,0
2018-04-28T01:59:15.565Z,0
2018-04-28T01:59:41.705Z,0
2018-04-28T02:00:07.844Z,0
2018-04-28T02:00:33.992Z,0
2018-04-28T02:01:00.196Z,0
2018-04-28T02:01:26.274Z,0
2018-04-28T02:01:52.429Z,0
2018-04-28T02:02:18.585Z,0
2018-04-28T02:02:44.722Z,0
2018-04-28T02:03:10.869Z,0
2018-04-28T02:03:37.000Z,0
2018-04-28T02:04:03.138Z,0
2018-04-28T02:04:29.278Z,0
2018-04-28T02:04:55.413Z,0
2018-04-28T02:05:21.557Z,0
2018-04-28T02:05:47.700Z,0
2018-04-28T02:06:13.859Z,0
2018-04-28T02:06:40.024Z,0
2018-04-28T02:07:06.168Z,0
2018-04-28T02:07:32.300Z,0
2018-04-28T02:07:58.430Z,0
2018-04-28T02:08:24.572Z,0
2018-04-28T02:08:50.708Z,0
2018-04-28T02:09:16.844Z,0
2018-04-28T02:09:42.993Z,0
2018-04-28T02:10:09.140Z,0
2018-04-28T02:10:35.285Z,0
2018-04-28T02:11:01.420Z,0
2018-04-28T02:11:27.554Z,0
2018-04-28T02:11:53.708Z,0
2018-04-28T02:12:19.855Z,0
2018-04-28T02:12:45.999Z,0
2018-04-28T02:13:12.137Z,0
2018-04-28T02:13:38.272Z,0
2018-04-28T02:14:04.424Z,0
2018-04-28T02:14:30.561Z,0
2018-04-28T02:14:56.701Z,0
2018-04-28T02:15:22.835Z,0
2018-04-28T02:15:48.968Z,0
2018-04-28T02:16:15.113Z,0
2018-04-28T02:16:41.244Z,0
2018-04-28T02:17:07.383Z,0
2018-04-28T02:17:33.529Z,0
2018-04-28T02:17:59.698Z,0
2018-04-28T02:18:25.835Z,0
2018-04-28T02:18:51.993Z,0
2018-04-28T02:19:18.131Z,0
2018-04-28T02:19:44.267Z,0
2018-04-28T02:20:10.447Z,0
2018-04-28T02:20:36.594Z,0
2018-04-28T02:21:02.726Z,0
2018-04-28T02:21:28.861Z,0
2018-04-28T02:21:55.024Z,0
2018-04-28T02:22:21.161Z,0
2018-04-28T02:22:47.307Z,0
2018-04-28T02:23:13.490Z,0
2018-04-28T02:23:39.625Z,0
2018-04-28T02:24:05.765Z,0
2018-04-28T02:24:31.905Z,0
2018-04-28T02:24:58.039Z,0
2018-04-28T02:25:24.195Z,0
2018-04-28T02:25:50.352Z,0
2018-04-28T02:26:16.528Z,0
2018-04-28T02:26:42.662Z,0
2018-04-28T02:27:08.801Z,0
2018-04-28T02:27:34.937Z,0
2018-04-28T02:28:01.076Z,0
2018-04-28T02:28:27.239Z,0
2018-04-28T02:28:53.373Z,0
2018-04-28T02:29:19.509Z,0
2018-04-28T02:29:45.675Z,0
2018-04-28T02:30:11.830Z,0
2018-04-28T02:30:37.968Z,0
2018-04-28T02:31:04.141Z,0
2018-04-28T02:31:30.349Z,0
2018-04-28T02:31:56.479Z,0
2018-04-28T02:32:22.618Z,0
2018-04-28T02:32:48.755Z,0
2018-04-28T02:33:14.894Z,0
2018-04-28T02:33:41.067Z,0
2018-04-28T02:34:07.228Z,0
2018-04-28T02:34:33.370Z,0
2018-04-28T02:34:59.537Z,0
2018-04-28T02:35:25.671Z,0
2018-04-28T02:35:51.814Z,0
2018-04-28T02:36:17.959Z,0
2018-04-28T02:36:44.179Z,0
2018-04-28T02:37:10.310Z,0
2018-04-28T02:37:36.456Z,0
2018-04-28T02:38:02.732Z,0
2018-04-28T02:38:28.777Z,0
2018-04-28T02:38:54.996Z,0
2018-04-28T02:39:21.154Z,0
2018-04-28T02:39:47.315Z,0
2018-04-28T02:40:13.478Z,0
2018-04-28T02:40:39.671Z,0
2018-04-28T02:41:05.801Z,0
2018-04-28T02:41:31.973Z,0
2018-04-28T02:41:58.151Z,0
2018-04-28T02:42:24.304Z,0
2018-04-28T02:42:50.467Z,0
2018-04-28T02:43:16.632Z,0
2018-04-28T02:43:42.769Z,0
2018-04-28T02:44:08.954Z,0
2018-04-28T02:44:35.117Z,0
2018-04-28T02:45:01.303Z,0
2018-04-28T02:45:27.473Z,0
2018-04-28T02:45:53.613Z,0
2018-04-28T02:46:19.750Z,0
2018-04-28T02:46:45.910Z,0
2018-04-28T02:47:12.056Z,0
2018-04-28T02:47:38.218Z,0
2018-04-28T02:48:04.378Z,0
2018-04-28T02:48:30.567Z,0
2018-04-28T02:48:56.701Z,0
2018-04-28T02:49:22.832Z,0
2018-04-28T02:49:49.030Z,0
2018-04-28T02:50:15.197Z,0
2018-04-28T02:50:41.299Z,0
2018-04-28T02:51:07.488Z,0
2018-04-28T02:51:33.671Z,0
2018-04-28T02:51:59.838Z,0
2018-04-28T02:52:26.003Z,0
2018-04-28T02:52:52.191Z,0
2018-04-28T02:53:18.312Z,0
2018-04-28T02:53:44.479Z,0
2018-04-28T02:54:10.611Z,0
2018-04-28T02:54:36.754Z,0
2018-04-28T02:55:02.896Z,0
2018-04-28T02:55:29.029Z,0
2018-04-28T02:55:55.221Z,0
2018-04-28T02:56:21.410Z,0
2018-04-28T02:56:47.572Z,0
2018-04-28T02:57:13.706Z,0
2018-04-28T02:57:39.890Z,0
2018-04-28T02:58:06.023Z,0
2018-04-28T02:58:32.166Z,0
2018-04-28T02:58:58.330Z,0
2018-04-28T02:59:24.466Z,0
2018-04-28T02:59:50.600Z,0
2018-04-28T03:00:16.743Z,0
2018-04-28T03:00:42.909Z,0
2018-04-28T03:01:09.075Z,0
2018-04-28T03:01:35.279Z,0
2018-04-28T03:02:01.416Z,0
2018-04-28T03:02:27.555Z,0
2018-04-28T03:02:53.715Z,0
2018-04-28T03:03:19.902Z,0
2018-04-28T03:03:46.091Z,0
2018-04-28T03:04:12.245Z,0
2018-04-28T03:04:38.389Z,0
2018-04-28T03:05:04.548Z,0
2018-04-28T03:05:30.757Z,0
2018-04-28T03:05:56.898Z,0
2018-04-28T03:06:23.084Z,0
2018-04-28T03:06:49.269Z,0
2018-04-28T03:07:15.430Z,0
2018-04-28T03:07:41.599Z,0
2018-04-28T03:08:07.758Z,0
2018-04-28T03:08:33.891Z,0
2018-04-28T03:09:00.051Z,0
2018-04-28T03:09:26.258Z,0
2018-04-28T03:09:52.400Z,0
2018-04-28T03:10:18.544Z,0
2018-04-28T03:10:44.696Z,0
2018-04-28T03:11:10.833Z,0
2018-04-28T03:11:36.967Z,0
2018-04-28T03:12:03.125Z,0
2018-04-28T03:12:29.280Z,0
2018-04-28T03:12:55.446Z,0
2018-04-28T03:13:21.584Z,0
2018-04-28T03:13:47.747Z,0
2018-04-28T03:14:13.905Z,0
2018-04-28T03:14:40.088Z,0
2018-04-28T03:15:06.231Z,0
2018-04-28T03:15:32.402Z,0
2018-04-28T03:15:58.541Z,0
2018-04-28T03:16:24.701Z,0
2018-04-28T03:16:50.873Z,0
2018-04-28T03:17:17.004Z,0
2018-04-28T03:17:43.150Z,0
2018-04-28T03:18:09.284Z,0
2018-04-28T03:18:35.428Z,0
2018-04-28T03:19:01.561Z,0
2018-04-28T03:19:27.711Z,0
2018-04-28T03:19:53.838Z,0
2018-04-28T03:20:19.975Z,0
2018-04-28T03:20:46.116Z,0
2018-04-28T03:21:12.258Z,0
2018-04-28T03:21:38.417Z,0
2018-04-28T03:22:04.557Z,0
2018-04-28T03:22:30.742Z,0
2018-04-28T03:22:56.837Z,0
2018-04-28T03:23:23.000Z,0
2018-04-28T03:23:49.156Z,0
2018-04-28T03:24:15.368Z,0
2018-04-28T03:24:41.430Z,0
2018-04-28T03:25:07.570Z,0
2018-04-28T03:25:33.732Z,0
2018-04-28T03:25:59.892Z,0
2018-04-28T03:26:26.033Z,0
2018-04-28T03:26:52.171Z,0
2018-04-28T03:27:18.304Z,0
2018-04-28T03:27:44.437Z,0
2018-04-28T03:28:10.585Z,0
2018-04-28T03:28:36.741Z,0
2018-04-28T03:29:02.905Z,0
2018-04-28T03:29:29.040Z,0
2018-04-28T03:29:55.188Z,0
2018-04-28T03:30:21.323Z,0
2018-04-28T03:30:47.461Z,0
2018-04-28T03:31:13.593Z,0
2018-04-28T03:31:39.786Z,0
2018-04-28T03:32:05.921Z,0
2018-04-28T03:32:32.053Z,0
2018-04-28T03:32:58.197Z,0
2018-04-28T03:33:24.329Z,0
2018-04-28T03:33:50.460Z,0
2018-04-28T03:34:16.600Z,0
2018-04-28T03:34:42.743Z,0
2018-04-28T03:35:08.882Z,0
2018-04-28T03:35:35.044Z,0
2018-04-28T03:36:01.180Z,0
2018-04-28T03:36:27.329Z,0
2018-04-28T03:36:53.483Z,0
2018-04-28T03:37:19.614Z,0
2018-04-28T03:37:45.788Z,0
2018-04-28T03:38:11.915Z,0
2018-04-28T03:38:38.060Z,0
2018-04-28T03:39:04.220Z,0
2018-04-28T03:39:30.358Z,0
2018-04-28T03:39:56.491Z,0
2018-04-28T03:40:22.661Z,0
2018-04-28T03:40:48.802Z,0
2018-04-28T03:41:14.963Z,0
2018-04-28T03:41:41.104Z,0
2018-04-28T03:42:07.267Z,0
2018-04-28T03:42:33.464Z,0
2018-04-28T03:42:59.594Z,0
2018-04-28T03:43:25.736Z,0
2018-04-28T03:43:51.874Z,0
2018-04-28T03:44:18.014Z,0
2018-04-28T03:44:44.151Z,0
2018-04-28T03:45:10.310Z,0
2018-04-28T03:45:36.457Z,0
2018-04-28T03:46:02.589Z,0
2018-04-28T03:46:28.762Z,0
2018-04-28T03:46:54.896Z,0
2018-04-28T03:47:21.062Z,0
2018-04-28T03:47:47.199Z,0
2018-04-28T03:48:13.339Z,0
2018-04-28T03:48:39.502Z,0
2018-04-28T03:49:05.683Z,0
2018-04-28T03:49:31.817Z,0
2018-04-28T03:49:57.966Z,0
2018-04-28T03:50:24.128Z,0
2018-04-28T03:50:50.315Z,0
2018-04-28T03:51:16.450Z,0
2018-04-28T03:51:42.605Z,0
2018-04-28T03:52:08.741Z,0
2018-04-28T03:52:34.875Z,0
2018-04-28T03:53:01.019Z,0
2018-04-28T03:53:27.237Z,0
2018-04-28T03:53:53.308Z,0
2018-04-28T03:54:19.457Z,0
2018-04-28T03:54:45.604Z,0
2018-04-28T03:55:11.736Z,5
2018-04-28T03:55:37.908Z,5
2018-04-28T03:56:04.047Z,5
2018-04-28T03:56:30.177Z,5
2018-04-28T03:56:56.312Z,5
2018-04-28T03:57:22.454Z,5
2018-04-28T03:57:48.588Z,5
2018-04-28T03:58:14.749Z,5
2018-04-28T03:58:40.895Z,5
2018-04-28T03:59:07.047Z,5
2018-04-28T03:59:33.210Z,5
2018-04-28T03:59:59.343Z,5
2018-04-28T04:00:25.511Z,5
2018-04-28T04:00:51.641Z,5
2018-04-28T04:01:17.785Z,10
2018-04-28T04:01:43.927Z,10
2018-04-28T04:02:10.086Z,10
2018-04-28T04:02:36.226Z,10
2018-04-28T04:03:02.387Z,10
2018-04-28T04:03:28.523Z,10
2018-04-28T04:03:54.672Z,10
2018-04-28T04:04:20.812Z,10
2018-04-28T04:04:46.951Z,10
2018-04-28T04:05:13.107Z,10
2018-04-28T04:05:39.249Z,10
2018-04-28T04:06:05.380Z,10
2018-04-28T04:06:31.524Z,10
2018-04-28T04:06:57.663Z,10
2018-04-28T04:07:23.798Z,15
2018-04-28T04:07:49.933Z,15
2018-04-28T04:08:16.080Z,15
2018-04-28T04:08:42.218Z,15
2018-04-28T04:09:08.353Z,15
2018-04-28T04:09:34.492Z,15
2018-04-28T04:10:00.633Z,15
2018-04-28T04:10:26.799Z,15
2018-04-28T04:10:52.930Z,15
2018-04-28T04:11:19.069Z,15
2018-04-28T04:11:45.214Z,15
2018-04-28T04:12:11.359Z,15
2018-04-28T04:12:37.489Z,20
2018-04-28T04:13:03.646Z,20
2018-04-28T04:13:29.787Z,20
2018-04-28T04:13:55.919Z,20
2018-04-28T04:14:22.066Z,20
2018-04-28T04:14:48.201Z,20
2018-04-28T04:15:14.345Z,20
2018-04-28T04:15:40.485Z,20
2018-04-28T04:16:06.646Z,20
2018-04-28T04:16:32.785Z,25
2018-04-28T04:16:58.921Z,25
2018-04-28T04:17:25.052Z,25
2018-04-28T04:17:51.228Z,25
2018-04-28T04:18:17.382Z,25
2018-04-28T04:18:43.537Z,25
2018-04-28T04:19:09.670Z,30
2018-04-28T04:19:35.812Z,30
2018-04-28T04:20:01.951Z,30
2018-04-28T04:20:28.124Z,30
2018-04-28T04:20:54.258Z,30
2018-04-28T04:21:20.404Z,30
2018-04-28T04:21:46.540Z,30
2018-04-28T04:22:12.680Z,35
2018-04-28T04:22:38.810Z,35
2018-04-28T04:23:04.949Z,35
2018-04-28T04:23:31.084Z,35
2018-04-28T04:23:57.227Z,40
2018-04-28T04:24:23.360Z,40
2018-04-28T04:24:49.493Z,40
2018-04-28T04:25:15.629Z,40
2018-04-28T04:25:41.771Z,40
2018-04-28T04:26:07.911Z,40
2018-04-28T04:26:34.163Z,40
2018-04-28T04:27:00.213Z,45
2018-04-28T04:27:26.381Z,45
2018-04-28T04:27:52.510Z,45
2018-04-28T04:28:18.658Z,45
2018-04-28T04:28:44.795Z,50
2018-04-28T04:29:10.966Z,50
2018-04-28T04:29:37.107Z,55
2018-04-28T04:30:03.248Z,55
2018-04-28T04:30:29.400Z,55
2018-04-28T04:30:55.542Z,60
2018-04-28T04:31:21.677Z,60
2018-04-28T04:31:47.830Z,60
2018-04-28T04:32:13.952Z,65
2018-04-28T04:32:40.090Z,65
2018-04-28T04:33:06.226Z,70
2018-04-28T04:33:32.368Z,70
2018-04-28T04:33:58.508Z,70
2018-04-28T04:34:24.662Z,75
2018-04-28T04:34:50.807Z,75
2018-04-28T04:35:16.940Z,75
2018-04-28T04:35:43.082Z,80
2018-04-28T04:36:09.221Z,80
2018-04-28T04:36:35.359Z,80
2018-04-28T04:37:01.497Z,80
2018-04-28T04:37:27.665Z,80
2018-04-28T04:37:53.827Z,80
2018-04-28T04:38:19.962Z,85
2018-04-28T04:38:46.117Z,85
2018-04-28T04:39:12.247Z,85
2018-04-28T04:39:38.387Z,90
2018-04-28T04:40:04.533Z,90
2018-04-28T04:40:30.673Z,90
2018-04-28T04:40:56.803Z,90
2018-04-28T04:41:22.943Z,90
2018-04-28T04:41:49.080Z,95
2018-04-28T04:42:15.227Z,90
2018-04-28T04:42:41.357Z,95
2018-04-28T04:43:07.533Z,95
2018-04-28T04:43:33.666Z,95
2018-04-28T04:43:59.808Z,95
2018-04-28T04:44:25.941Z,95
2018-04-28T04:44:52.083Z,100
2018-04-28T04:45:18.262Z,100
2018-04-28T04:45:44.404Z,100
2018-04-28T04:46:10.544Z,100
2018-04-28T04:46:36.704Z,105
2018-04-28T04:47:02.846Z,105
2018-04-28T04:47:28.987Z,110
2018-04-28T04:47:55.173Z,110
2018-04-28T04:48:21.311Z,110
2018-04-28T04:48:47.510Z,115
2018-04-28T04:49:13.590Z,115
2018-04-28T04:49:39.725Z,120
2018-04-28T04:50:05.872Z,120
2018-04-28T04:50:32.009Z,120
2018-04-28T04:50:58.147Z,125
2018-04-28T04:51:24.284Z,125
2018-04-28T04:51:50.421Z,125
2018-04-28T04:52:16.581Z,130
2018-04-28T04:52:42.724Z,130
2018-04-28T04:53:08.854Z,135
2018-04-28T04:53:34.998Z,130
2018-04-28T04:54:01.141Z,130
2018-04-28T04:54:27.274Z,135
2018-04-28T04:54:53.418Z,135
2018-04-28T04:55:19.550Z,135
2018-04-28T04:55:45.716Z,135
2018-04-28T04:56:11.850Z,135
2018-04-28T04:56:37.989Z,135
2018-04-28T04:57:04.125Z,135
2018-04-28T04:57:30.270Z,135
2018-04-28T04:57:56.427Z,140
2018-04-28T04:58:22.563Z,140
2018-04-28T04:58:48.706Z,140
2018-04-28T04:59:14.843Z,140
2018-04-28T04:59:40.976Z,140
2018-04-28T05:00:07.126Z,140
2018-04-28T05:00:33.290Z,145
2018-04-28T05:00:59.398Z,140
2018-04-28T05:01:25.557Z,140
2018-04-28T05:01:51.697Z,140
2018-04-28T05:02:17.839Z,140
2018-04-28T05:02:43.978Z,145
2018-04-28T05:03:10.175Z,145
2018-04-28T05:03:36.307Z,145
2018-04-28T05:04:02.445Z,145
2018-04-28T05:04:28.606Z,150
2018-04-28T05:04:54.776Z,150
2018-04-28T05:05:20.920Z,150
2018-04-28T05:05:47.058Z,155
2018-04-28T05:06:13.195Z,155
2018-04-28T05:06:39.359Z,155
2018-04-28T05:07:05.519Z,160
2018-04-28T05:07:31.668Z,160
2018-04-28T05:07:57.793Z,160
2018-04-28T05:08:23.931Z,160
2018-04-28T05:08:50.071Z,160
2018-04-28T05:09:16.213Z,165
2018-04-28T05:09:42.352Z,165
2018-04-28T05:10:08.490Z,165
2018-04-28T05:10:34.625Z,170
2018-04-28T05:11:00.764Z,170
2018-04-28T05:11:26.926Z,170
2018-04-28T05:11:53.059Z,170
2018-04-28T05:12:19.196Z,175
2018-04-28T05:12:45.342Z,175
2018-04-28T05:13:11.480Z,175
2018-04-28T05:13:37.619Z,175
2018-04-28T05:14:03.751Z,175
2018-04-28T05:14:29.886Z,175
2018-04-28T05:14:56.030Z,175
2018-04-28T05:15:22.166Z,175
2018-04-28T05:15:48.302Z,175
2018-04-28T05:16:14.444Z,175
2018-04-28T05:16:40.577Z,180
2018-04-28T05:17:06.719Z,180
2018-04-28T05:17:32.860Z,180
2018-04-28T05:17:58.996Z,185
2018-04-28T05:18:25.135Z,185
2018-04-28T05:18:51.270Z,185
2018-04-28T05:19:17.436Z,190
2018-04-28T05:19:43.576Z,190
2018-04-28T05:20:09.712Z,195
2018-04-28T05:20:35.873Z,195
2018-04-28T05:21:02.024Z,195
2018-04-28T05:21:28.208Z,195
2018-04-28T05:21:54.339Z,200
2018-04-28T05:22:20.484Z,200
2018-04-28T05:22:46.621Z,205
2018-04-28T05:23:12.766Z,205
2018-04-28T05:23:38.910Z,210
2018-04-28T05:24:05.051Z,210
2018-04-28T05:24:31.186Z,215
2018-04-28T05:24:57.334Z,220
2018-04-28T05:25:23.473Z,220
2018-04-28T05:25:49.613Z,225
2018-04-28T05:26:15.748Z,230
2018-04-28T05:26:41.891Z,230
2018-04-28T05:27:08.029Z,230
2018-04-28T05:27:34.168Z,235
2018-04-28T05:28:00.303Z,240
2018-04-28T05:28:26.436Z,240
2018-04-28T05:28:52.567Z,245
2018-04-28T05:29:18.703Z,250
2018-04-28T05:29:44.846Z,250
2018-04-28T05:30:10.989Z,255
2018-04-28T05:30:37.125Z,255
2018-04-28T05:31:03.272Z,260
2018-04-28T05:31:29.436Z,260
2018-04-28T05:31:55.591Z,260
2018-04-28T05:32:21.735Z,265
2018-04-28T05:32:47.874Z,265
2018-04-28T05:33:14.010Z,265
2018-04-28T05:33:40.157Z,260
2018-04-28T05:34:06.297Z,265
2018-04-28T05:34:32.431Z,265
2018-04-28T05:34:58.573Z,265
2018-04-28T05:35:24.715Z,265
2018-04-28T05:35:50.857Z,270
2018-04-28T05:36:16.992Z,270
2018-04-28T05:36:43.135Z,275
2018-04-28T05:37:09.295Z,275
2018-04-28T05:37:35.437Z,280
2018-04-28T05:38:01.577Z,280
2018-04-28T05:38:27.722Z,280
2018-04-28T05:38:53.860Z,280
2018-04-28T05:39:20.000Z,285
2018-04-28T05:39:46.185Z,285
2018-04-28T05:40:12.324Z,285
2018-04-28T05:40:38.484Z,285
2018-04-28T05:41:04.623Z,285
2018-04-28T05:41:30.789Z,285
2018-04-28T05:41:56.959Z,285
2018-04-28T05:42:23.090Z,290
2018-04-28T05:42:49.231Z,290
2018-04-28T05:43:15.372Z,290
2018-04-28T05:43:41.525Z,295
2018-04-28T05:44:07.668Z,300
2018-04-28T05:44:33.811Z,305
2018-04-28T05:45:00.001Z,310
2018-04-28T05:45:26.114Z,315
2018-04-28T05:45:52.253Z,315
2018-04-28T05:46:18.405Z,320
2018-04-28T05:46:44.541Z,325
2018-04-28T05:47:10.674Z,330
2018-04-28T05:47:36.813Z,330
2018-04-28T05:48:02.952Z,335
2018-04-28T05:48:29.119Z,335
2018-04-28T05:48:55.241Z,335
2018-04-28T05:49:21.416Z,340
2018-04-28T05:49:47.555Z,340
2018-04-28T05:50:13.708Z,340
2018-04-28T05:50:39.893Z,340
2018-04-28T05:51:06.028Z,340
2018-04-28T05:51:32.194Z,345
2018-04-28T05:51:58.332Z,345
2018-04-28T05:52:24.480Z,350
2018-04-28T05:52:50.610Z,345
2018-04-28T05:53:16.761Z,345
2018-04-28T05:53:42.922Z,345
2018-04-28T05:54:09.057Z,345
2018-04-28T05:54:35.201Z,345
2018-04-28T05:55:01.343Z,345
2018-04-28T05:55:27.473Z,345
2018-04-28T05:55:53.619Z,345
2018-04-28T05:56:19.771Z,350
2018-04-28T05:56:45.912Z,350
2018-04-28T05:57:12.055Z,350
2018-04-28T05:57:38.192Z,355
2018-04-28T05:58:04.325Z,355
2018-04-28T05:58:30.507Z,360
2018-04-28T05:58:56.647Z,365
2018-04-28T05:59:22.792Z,370
2018-04-28T05:59:48.936Z,375
2018-04-28T06:00:15.076Z,380
2018-04-28T06:00:41.216Z,380
2018-04-28T06:01:07.363Z,385
2018-04-28T06:01:33.496Z,385
2018-04-28T06:01:59.645Z,385
2018-04-28T06:02:25.795Z,385
2018-04-28T06:02:51.959Z,390
2018-04-28T06:03:18.111Z,385
2018-04-28T06:03:44.249Z,385
2018-04-28T06:04:10.410Z,385
2018-04-28T06:04:36.553Z,380
2018-04-28T06:05:02.685Z,380
2018-04-28T06:05:28.831Z,375
2018-04-28T06:05:54.965Z,370
2018-04-28T06:06:21.108Z,360
2018-04-28T06:06:47.273Z,355
2018-04-28T06:07:13.421Z,350
2018-04-28T06:07:39.553Z,350
2018-04-28T06:08:05.725Z,350
2018-04-28T06:08:31.889Z,350
2018-04-28T06:08:58.029Z,355
2018-04-28T06:09:24.163Z,355
2018-04-28T06:09:50.303Z,365
2018-04-28T06:10:16.438Z,365
2018-04-28T06:10:42.575Z,370
2018-04-28T06:11:08.739Z,375
2018-04-28T06:11:34.882Z,380
2018-04-28T06:12:01.022Z,385
2018-04-28T06:12:27.162Z,390
2018-04-28T06:12:53.322Z,405
2018-04-28T06:13:19.460Z,410
2018-04-28T06:13:45.604Z,415
2018-04-28T06:14:11.809Z,425
2018-04-28T06:14:37.889Z,430
2018-04-28T06:15:04.038Z,440
2018-04-28T06:15:30.208Z,445
2018-04-28T06:15:56.354Z,450
2018-04-28T06:16:22.521Z,455
2018-04-28T06:16:48.667Z,460
2018-04-28T06:17:14.799Z,465
2018-04-28T06:17:40.937Z,465
2018-04-28T06:18:07.086Z,470